Flowood, MS (39232)

4:17 PM CST on December 03, 2016 (GMT -0600)
Eastover | | Change Station

Elev 341 ft 32.34 °N, 90.14 °W | Updated 22 seconds ago

Light Rain
Light Rain
46.7 °F
Feels Like 47 °F
N
0.0
Wind Variable Wind from NNW

Today
High -- | Low -- °F
--% Chance of Precip.
Yesterday
High -- | Low -- °F
Precip. -- in
Pressure 30.10 in
Visibility 8.0 miles
Clouds Few 900 ft
Scattered Clouds 1200 ft
Overcast 4200 ft
Windchill 47 °F
Dew Point 44 °F
Humidity 91%
Rainfall 0.02 in
Snow Depth Not available.
6:45 AM 4:55 PM
Waxing Crescent, 17% visible
SPECI KJAN 032214Z 07009G17KT 8SM -RA FEW009 SCT012 OVC042 08/07 A3010 RMK AO2 P0003 T00830067
Pressure 30.10 in
Visibility 8.0 miles
Clouds Few 900 ft
Scattered Clouds 1200 ft
Overcast 4200 ft
Windchill 47 °F
Dew Point 44 °F
Humidity 91%
Rainfall 0.02 in
Snow Depth Not available.
6:45 AM 4:55 PM
Waxing Crescent, 17% visible
SPECI KJAN 032214Z 07009G17KT 8SM -RA FEW009 SCT012 OVC042 08/07 A3010 RMK AO2 P0003 T00830067

10-Day Weather Forecast

Almanac

Astronomy

Dec. 03, 2016 Rise Set
Actual Time
Civil Twilight
Nautical Twilight
Astronomical Twilight
Moon
Length of Visible Light
Length of Day
Tomorrow will be .
, % of the Moon is Illuminated

Today's Extremes

State Highs State Lows

Community

WunderPhotos

Upload Photos

1,955,525 photos uploaded!

WunderBlog® & News

Nearby

Air Quality

  Air Quality AQ Index Pollutant
Not available.

Snow Depth

Station Depth Elevation

Earthquake Activity

City Distance Mag. Time & Date
Minimum magnitude displayed is 2.5.

Coastal Water Temperatures

Place Temperature

Stations

Nearby Weather Stations

Station Location Temp. Windchill Dew Point Humidity Wind Precip. Elev Updated Type
                   

Watches & Warnings

There are currently no watches in effect.